Chipita Park, Colorado
Current Conditions -  °F | °C
As of 1:58 PM on Monday 24 Nov 2014 (Local Time) from KAFF Reporting Station
Few Clouds Few Clouds  
Wind Chill: 24°   Ceiling: Unl
Heat Index: 35°   Visibility: 10mi
Dew Point:   Wind: 18mph
Humidity: 26%   Direction: 360°N
Pressure: 29.97"   Gusts: 23mph
Location:  38.9233°N, 104.975°W
Report Text: KAFF 242058Z AUTO 36016G20KT 10SM FEW090 02/M16 A2997 RMK AO2 SLP174 60000 T00151161 53009
Loading
Personal Weather Stations






























Interactive Weather Map New forecast layout! Learn more

10-Day Weather Forecast

Advertisements
Track Severe Weather on mobile